Time;durP1;ratioP1;P1;durP2;ratioP2;P2;SDS_P1;SDS_P2;PMS_P1;PMS_P2;Temp;Humidity;BMP_temperature;BMP_pressure;BME280_temperature;BME280_humidity;BME280_pressure;Samples;Min_cycle;Max_cycle;Signal;HPM_P1;HPM_P2
2022/04/12 00:01:49;;;;;;;3.22;2.50;;;;;;;8.17;97.03;100583.03;5154946;23;20111;-67
2022/04/12 00:04:14;;;;;;;3.45;2.50;;;;;;;8.10;96.45;100570.44;4342368;28;10001138;-69
2022/04/12 00:06:40;;;;;;;3.88;2.70;;;;;;;8.02;94.53;100526.63;5047205;28;20052;-70
2022/04/12 00:09:05;;;;;;;4.47;3.20;;;;;;;8.18;96.79;100571.19;5047436;28;20052;-70
2022/04/12 00:11:31;;;;;;;3.72;3.15;;;;;;;7.79;100.00;100574.88;5048093;28;20037;-69
2022/04/12 00:13:56;;;;;;;4.93;3.13;;;;;;;7.66;100.00;100574.13;5047283;28;20033;-70
2022/04/12 00:16:21;;;;;;;3.50;2.80;;;;;;;7.99;96.92;100529.16;5047815;28;20032;-69
2022/04/12 00:19:02;;;;;;;4.95;3.30;;;;;;;7.69;100.00;100568.19;5047659;28;20036;-69
2022/04/12 00:21:28;;;;;;;5.47;3.45;;;;;;;7.52;100.00;100539.66;5047464;28;20085;-70
2022/04/12 00:23:53;;;;;;;4.82;3.78;;;;;;;7.58;100.00;100575.03;5048041;28;20033;-70
2022/04/12 00:26:19;;;;;;;4.82;3.10;;;;;;;7.60;100.00;100550.56;5047688;28;20037;-69
2022/04/12 00:28:44;;;;;;;5.07;2.80;;;;;;;7.62;99.60;100541.28;5047975;28;20037;-70
2022/04/12 00:31:09;;;;;;;4.40;2.95;;;;;;;7.66;100.00;100574.13;5040189;28;20455;-70
2022/04/12 00:33:35;;;;;;;4.47;2.85;;;;;;;7.50;100.00;100531.22;5027522;28;20038;-70
2022/04/12 00:36:02;;;;;;;3.60;3.13;;;;;;;7.38;100.00;100559.97;5027154;28;20030;-70
2022/04/12 00:38:33;;;;;;;4.60;3.10;;;;;;;7.39;100.00;100566.69;5027377;28;20033;-70
2022/04/12 00:40:59;;;;;;;4.20;3.70;;;;;;;7.23;100.00;100522.13;5027680;28;20040;-69
2022/04/12 00:43:31;;;;;;;5.00;3.60;;;;;;;7.06;100.00;100539.06;5027318;28;21276;-70
2022/04/12 00:46:00;;;;;;;5.05;4.15;;;;;;;7.45;100.00;100553.16;5026696;28;20076;-70
2022/04/12 00:48:30;;;;;;;4.55;3.45;;;;;;;7.17;100.00;100556.72;5025803;28;20411;-70
2022/04/12 00:50:56;;;;;;;4.78;3.53;;;;;;;7.33;100.00;100563.38;5027056;28;20488;-70
2022/04/12 00:53:23;;;;;;;4.38;3.50;;;;;;;7.24;100.00;100563.41;5027537;28;20040;-69
2022/04/12 00:55:49;;;;;;;3.90;3.17;;;;;;;7.18;100.00;100560.91;5027151;28;20030;-70
2022/04/12 00:58:15;;;;;;;3.83;3.33;;;;;;;7.00;100.00;100556.78;5027647;28;20033;-69
2022/04/12 01:00:40;;;;;;;4.60;3.20;;;;;;;7.21;100.00;100556.69;5026921;28;20558;-69
2022/04/12 01:03:05;;;;;;;5.45;2.70;;;;;;;6.97;100.00;100534.06;5034427;28;20061;-71
2022/04/12 01:05:32;;;;;;;6.40;2.60;;;;;;;7.05;100.00;100537.41;5046938;28;20123;-69
2022/04/12 01:07:58;;;;;;;5.20;2.72;;;;;;;7.18;100.00;100565.97;5046903;28;20601;-69
2022/04/12 01:10:23;;;;;;;4.55;2.53;;;;;;;7.34;100.00;100560.00;5045900;28;20033;-70
2022/04/12 01:12:51;;;;;;;4.57;2.55;;;;;;;7.15;100.00;100526.38;5045559;28;20025;-70
2022/04/12 01:15:22;;;;;;;4.35;2.33;;;;;;;7.35;100.00;100528.81;5046137;28;20119;-70
2022/04/12 01:17:49;;;;;;;2.10;1.70;;;;;;;7.53;100.00;100553.97;5046972;28;20040;-72
2022/04/12 01:20:16;;;;;;;3.35;2.38;;;;;;;7.67;98.08;100519.28;5047075;28;20041;-70
2022/04/12 01:23:15;;;;;;;3.30;2.15;;;;;;;7.83;97.00;100556.28;5046729;28;20766;-69
2022/04/12 01:25:41;;;;;;;2.38;1.90;;;;;;;7.60;94.28;100499.97;5039901;28;20048;-69
2022/04/12 01:28:08;;;;;;;2.95;2.20;;;;;;;7.70;95.74;100535.31;5046431;28;20040;-69
2022/04/12 01:30:35;;;;;;;3.10;2.30;;;;;;;7.75;94.92;100528.50;5045519;28;20048;-72
2022/04/12 01:33:00;;;;;;;3.10;1.92;;;;;;;7.63;94.94;100543.78;5045313;28;20033;-70
2022/04/12 01:35:25;;;;;;;3.25;2.13;;;;;;;7.86;93.15;100536.84;5045033;28;20513;-70
2022/04/12 01:37:51;;;;;;;3.58;2.28;;;;;;;7.63;94.32;100520.16;5046445;28;20061;-70
2022/04/12 01:40:16;;;;;;;4.45;2.30;;;;;;;7.60;93.19;100521.06;5044774;28;20042;-70
2022/04/12 01:42:42;;;;;;;3.30;2.45;;;;;;;7.57;93.77;100513.47;5046607;28;20667;-70
2022/04/12 01:45:08;;;;;;;2.72;2.10;;;;;;;7.45;97.08;100540.53;5046844;28;20036;-69
2022/04/12 01:47:34;;;;;;;3.58;2.10;;;;;;;6.94;98.66;100499.53;5046662;28;20519;-70
2022/04/12 01:49:59;;;;;;;4.72;2.40;;;;;;;7.43;98.17;100545.59;5044881;28;20071;-69
2022/04/12 01:52:24;;;;;;;3.85;2.25;;;;;;;7.51;98.19;100548.91;5045377;28;20036;-70
2022/04/12 01:54:50;;;;;;;3.42;2.42;;;;;;;6.99;100.00;100523.09;5046516;28;20071;-71
2022/04/12 01:57:16;;;;;;;3.85;2.60;;;;;;;7.24;100.00;100556.69;5047192;28;20049;-70
2022/04/12 01:59:42;;;;;;;3.83;2.70;;;;;;;7.26;100.00;100559.19;5048969;28;20124;-70
2022/04/12 02:02:09;;;;;;;6.03;2.92;;;;;;;7.02;100.00;100522.25;5049716;28;20578;-70
2022/04/12 02:04:35;;;;;;;4.15;2.80;;;;;;;7.17;100.00;100549.94;5050252;28;20106;-71
2022/04/12 02:07:00;;;;;;;4.13;2.90;;;;;;;6.79;100.00;100544.25;5050435;28;20029;-69
2022/04/12 02:09:26;;;;;;;2.95;2.60;;;;;;;6.92;100.00;100540.81;5050365;28;20031;-69
2022/04/12 02:11:53;;;;;;;3.60;2.90;;;;;;;6.70;100.00;100559.41;5049734;28;20037;-70
2022/04/12 02:14:19;;;;;;;6.68;2.67;;;;;;;6.86;100.00;100546.75;5049798;28;20032;-71
2022/04/12 02:16:44;;;;;;;2.50;2.30;;;;;;;6.92;100.00;100550.94;5049509;28;20136;-69
2022/04/12 02:19:09;;;;;;;4.43;2.65;;;;;;;6.75;100.00;100527.41;5049503;28;20517;-70
2022/04/12 02:21:35;;;;;;;4.57;2.30;;;;;;;6.69;100.00;100524.91;5047959;28;20036;-70
2022/04/12 02:24:00;;;;;;;4.35;2.33;;;;;;;6.43;100.00;100525.00;5049997;28;20124;-70
2022/04/12 02:26:26;;;;;;;4.63;2.42;;;;;;;6.83;100.00;100566.13;5049050;28;20347;-69
2022/04/12 02:28:51;;;;;;;3.60;2.50;;;;;;;6.55;100.00;100532.53;5049583;28;20520;-70
2022/04/12 02:31:16;;;;;;;3.78;2.50;;;;;;;6.63;100.00;100543.47;5049781;28;20124;-70
2022/04/12 02:33:42;;;;;;;4.65;2.80;;;;;;;6.51;100.00;100552.75;5048363;28;20025;-70
2022/04/12 02:36:07;;;;;;;4.57;2.70;;;;;;;6.52;100.00;100574.63;5049245;28;20068;-70
2022/04/12 02:38:32;;;;;;;4.25;2.85;;;;;;;6.69;100.00;100563.66;5049190;28;20029;-69
2022/04/12 02:40:58;;;;;;;5.80;2.35;;;;;;;6.71;100.00;100561.97;5048066;28;20037;-69
2022/04/12 02:43:23;;;;;;;3.38;2.47;;;;;;;6.86;100.00;100591.38;5047845;28;20497;-69
2022/04/12 02:45:49;;;;;;;4.75;2.90;;;;;;;6.70;100.00;100565.31;5048798;28;20732;-70
2022/04/12 02:48:14;;;;;;;5.22;2.28;;;;;;;6.81;100.00;100588.84;5049401;28;20029;-69
2022/04/12 02:50:40;;;;;;;3.80;2.63;;;;;;;6.75;100.00;100588.91;5047289;28;20037;-70
2022/04/12 02:53:06;;;;;;;4.05;2.28;;;;;;;6.61;100.00;100556.94;5048220;28;20422;-70
2022/04/12 02:55:31;;;;;;;4.47;2.60;;;;;;;6.64;100.00;100559.44;5047782;28;20037;-70
2022/04/12 02:57:56;;;;;;;2.92;2.35;;;;;;;6.79;100.00;100597.31;5049572;28;20044;-69
2022/04/12 03:00:22;;;;;;;3.10;2.55;;;;;;;6.81;100.00;100593.09;5049135;28;20064;-70
2022/04/12 03:02:47;;;;;;;3.70;2.60;;;;;;;6.86;100.00;100592.22;5048183;28;20477;-69
2022/04/12 03:05:13;;;;;;;4.07;2.55;;;;;;;6.58;100.00;100575.44;5048863;28;20039;-70
2022/04/12 03:07:38;;;;;;;4.30;2.72;;;;;;;6.82;100.00;100594.75;5049090;28;20032;-69
2022/04/12 03:10:04;;;;;;;3.92;2.78;;;;;;;6.63;100.00;100572.94;5047682;28;20035;-70
2022/04/12 03:12:30;;;;;;;5.93;2.83;;;;;;;6.52;100.00;100567.03;5048604;28;20525;-69
2022/04/12 03:14:55;;;;;;;6.82;3.65;;;;;;;6.70;100.00;100597.31;5048237;28;20037;-70
2022/04/12 03:17:21;;;;;;;5.35;3.33;;;;;;;6.48;100.00;100553.59;5042021;28;20112;-69
2022/04/12 03:19:46;;;;;;;4.28;2.95;;;;;;;6.90;100.00;100615.78;5028818;28;20555;-69
2022/04/12 03:22:13;;;;;;;4.90;3.28;;;;;;;6.66;100.00;100608.28;5028895;28;20040;-70
2022/04/12 03:24:38;;;;;;;6.07;3.13;;;;;;;6.60;100.00;100580.50;5035864;28;20036;-71
2022/04/12 03:27:05;;;;;;;4.80;3.17;;;;;;;6.84;100.00;100603.19;5047986;28;20033;-69
2022/04/12 03:29:30;;;;;;;4.75;3.17;;;;;;;6.73;100.00;100615.00;5048998;28;20107;-70
2022/04/12 03:31:56;;;;;;;4.95;3.25;;;;;;;6.69;100.00;100608.28;5047136;28;20175;-70
2022/04/12 03:34:21;;;;;;;6.20;3.40;;;;;;;6.60;100.00;100599.03;5048511;28;20033;-71
2022/04/12 03:36:46;;;;;;;5.15;3.13;;;;;;;6.48;100.00;100561.16;5048505;28;20495;-71
2022/04/12 03:39:17;;;;;;;5.07;2.90;;;;;;;6.75;100.00;100626.81;5046418;28;20476;-70
2022/04/12 03:41:46;;;;;;;4.70;2.90;;;;;;;6.75;100.00;100629.31;5048550;28;20036;-69
2022/04/12 03:44:13;;;;;;;6.90;2.85;;;;;;;6.67;100.00;100627.66;5048655;28;20037;-71
2022/04/12 03:46:38;;;;;;;4.50;3.00;;;;;;;6.53;100.00;100617.56;5048346;28;20455;-69
2022/04/12 03:49:03;;;;;;;4.78;3.00;;;;;;;6.36;100.00;100588.97;5047110;28;20035;-68
2022/04/12 03:51:29;;;;;;;6.00;3.50;;;;;;;6.48;100.00;100583.88;5046458;28;20035;-71
2022/04/12 03:53:54;;;;;;;6.53;3.97;;;;;;;6.68;100.00;100631.84;5047645;28;20090;-71
2022/04/12 03:56:20;;;;;;;4.18;3.05;;;;;;;6.89;100.00;100625.06;5048101;28;20487;-69
2022/04/12 03:58:45;;;;;;;6.47;3.00;;;;;;;6.77;98.55;100609.09;5048015;28;20029;-69
2022/04/12 04:01:11;;;;;;;4.60;2.80;;;;;;;6.90;100.00;100615.78;5047775;28;20025;-70
2022/04/12 04:03:36;;;;;;;4.97;2.90;;;;;;;6.69;100.00;100610.81;5048044;28;20068;-69
2022/04/12 04:06:03;;;;;;;5.10;3.55;;;;;;;6.29;100.00;100602.44;5050116;28;20045;-74
2022/04/12 04:08:28;;;;;;;3.97;3.22;;;;;;;6.35;100.00;100652.09;5050755;28;20571;-70
2022/04/12 04:10:54;;;;;;;6.88;3.22;;;;;;;6.60;100.00;100641.13;5050889;28;20036;-70
2022/04/12 04:13:20;;;;;;;7.68;3.55;;;;;;;6.50;100.00;100632.72;5049907;28;20087;-70
2022/04/12 04:15:46;;;;;;;6.85;4.25;;;;;;;6.26;100.00;100652.09;5050812;28;20032;-70
2022/04/12 04:18:13;;;;;;;6.00;3.70;;;;;;;6.02;100.00;100635.25;5051014;28;20473;-70
2022/04/12 04:20:38;;;;;;;7.05;3.80;;;;;;;6.23;100.00;100667.22;5050584;28;20029;-71
2022/04/12 04:23:05;;;;;;;6.25;3.33;;;;;;;6.28;100.00;100661.34;5050743;28;20101;-70
2022/04/12 04:25:30;;;;;;;5.95;3.70;;;;;;;5.92;100.00;100667.19;5050788;28;20495;-71
2022/04/12 04:27:56;;;;;;;4.65;2.85;;;;;;;7.14;100.00;100655.31;5050760;28;20044;-70
2022/04/12 04:30:22;;;;;;;4.05;2.63;;;;;;;6.04;100.00;100631.06;5049458;28;20029;-71
2022/04/12 04:32:48;;;;;;;6.20;3.30;;;;;;;6.33;100.00;100631.03;5049415;28;20029;-71
2022/04/12 04:35:14;;;;;;;4.80;3.47;;;;;;;6.65;100.00;100662.19;5050605;28;20060;-71
2022/04/12 04:37:46;;;;;;;7.55;2.90;;;;;;;6.80;100.00;100670.56;5050150;28;20118;-71
2022/04/12 04:40:16;;;;;;;8.50;4.15;;;;;;;6.60;100.00;100674.81;5049532;28;20414;-73
2022/04/12 04:42:42;;;;;;;10.85;4.40;;;;;;;6.56;100.00;100637.75;5049165;28;20025;-70
2022/04/12 04:45:09;;;;;;;16.00;5.85;;;;;;;8.67;100.00;100648.47;5049923;28;20490;-70
2022/04/12 04:47:34;;;;;;;8.63;5.70;;;;;;;7.14;100.00;100675.53;5050645;28;20633;-69
2022/04/12 04:50:01;;;;;;;10.48;6.30;;;;;;;7.03;100.00;100647.78;5047614;28;20127;-67
2022/04/12 04:52:26;;;;;;;9.63;5.63;;;;;;;6.98;100.00;100667.16;5050166;28;20116;-70
2022/04/12 04:54:52;;;;;;;7.72;5.18;;;;;;;7.11;100.00;100675.56;5049440;28;20116;-70
2022/04/12 04:57:17;;;;;;;9.57;4.70;;;;;;;7.45;100.00;100677.09;5048309;28;20036;-70
2022/04/12 04:59:43;;;;;;;8.45;5.05;;;;;;;7.11;100.00;100630.88;5050626;28;20028;-70
2022/04/12 05:02:08;;;;;;;7.63;4.88;;;;;;;7.58;100.00;100656.00;5048936;28;20111;-70
2022/04/12 05:04:33;;;;;;;6.45;4.22;;;;;;;7.85;100.00;100681.13;5049475;28;20036;-67
2022/04/12 05:06:59;;;;;;;7.00;3.72;;;;;;;7.69;100.00;100665.19;5047946;28;20664;-71
2022/04/12 05:09:24;;;;;;;8.98;3.60;;;;;;;7.90;100.00;100684.50;5049777;28;20112;-70
2022/04/12 05:11:50;;;;;;;5.80;4.03;;;;;;;8.42;100.00;100673.16;5049706;28;20032;-70
2022/04/12 05:14:15;;;;;;;9.48;3.70;;;;;;;8.45;100.00;100650.38;5049905;28;20025;-69
2022/04/12 05:16:41;;;;;;;12.13;5.20;;;;;;;8.56;100.00;100652.78;5049822;28;20079;-70
2022/04/12 05:19:06;;;;;;;12.70;7.32;;;;;;;9.27;92.04;100685.03;5049853;28;20143;-71
2022/04/12 05:21:31;;;;;;;19.95;9.55;;;;;;;9.42;87.25;100679.78;5048234;28;20071;-71
2022/04/12 05:23:57;;;;;;;6.63;3.65;;;;;;;9.05;84.54;100594.81;5048607;28;20471;-71
2022/04/12 05:26:22;;;;;;;4.18;2.70;;;;;;;9.49;82.52;100683.91;5050399;28;20028;-71
2022/04/12 05:28:47;;;;;;;4.55;3.13;;;;;;;9.82;82.89;100659.78;5050514;28;20086;-69
2022/04/12 05:31:14;;;;;;;4.90;3.13;;;;;;;9.74;80.42;100662.44;5050348;28;20506;-70
2022/04/12 05:33:39;;;;;;;3.58;2.40;;;;;;;9.77;79.65;100641.22;5053804;28;20041;-70
2022/04/12 05:36:06;;;;;;;4.28;2.65;;;;;;;9.89;79.08;100659.69;5054176;28;20454;-71
2022/04/12 05:38:31;;;;;;;3.88;2.40;;;;;;;9.77;76.14;100657.31;5054260;28;20029;-71
2022/04/12 05:40:57;;;;;;;3.38;2.60;;;;;;;10.22;74.86;100661.75;5052953;28;20499;-71
2022/04/12 05:43:22;;;;;;;3.60;1.98;;;;;;;9.97;73.23;100645.16;5052635;28;20017;-71
2022/04/12 05:45:48;;;;;;;3.47;2.10;;;;;;;10.05;71.42;100655.22;5053774;28;20115;-71
2022/04/12 05:48:13;;;;;;;3.47;2.33;;;;;;;10.30;70.22;100664.19;5054099;28;20033;-70
2022/04/12 05:50:39;;;;;;;3.47;2.20;;;;;;;10.78;69.33;100653.16;5053691;28;20420;-68
2022/04/12 05:53:04;;;;;;;4.60;2.67;;;;;;;10.22;69.81;100660.94;5053824;28;20025;-70
2022/04/12 05:55:30;;;;;;;4.03;2.00;;;;;;;10.77;67.52;100661.69;5053894;28;20135;-71
2022/04/12 05:57:59;;;;;;;3.90;2.40;;;;;;;11.09;66.88;100694.16;5053869;28;20103;-71
2022/04/12 06:00:27;;;;;;;5.32;2.90;;;;;;;10.72;65.88;100693.97;5053519;28;20032;-71
2022/04/12 06:02:53;;;;;;;3.60;2.65;;;;;;;10.95;65.54;100671.50;5053635;28;20136;-71
2022/04/12 06:05:20;;;;;;;3.25;2.30;;;;;;;10.81;65.09;100663.31;5053332;28;20032;-71
2022/04/12 06:07:47;;;;;;;5.30;3.20;;;;;;;11.26;64.70;100699.75;5053656;28;20094;-70
2022/04/12 06:10:14;;;;;;;6.47;3.20;;;;;;;11.11;64.40;100705.16;5052334;28;20033;-71
2022/04/12 06:12:40;;;;;;;8.23;3.60;;;;;;;10.86;64.58;100661.50;5053670;28;20032;-71
2022/04/12 06:15:06;;;;;;;5.03;3.10;;;;;;;11.90;64.62;100684.88;5053565;28;20415;-71
2022/04/12 06:17:34;;;;;;;16.40;8.77;;;;;;;12.14;63.10;100679.22;5053509;28;20040;-70
2022/04/12 06:20:07;;;;;;;8.70;4.70;;;;;;;11.89;62.65;100695.09;5053288;28;20029;-71
2022/04/12 06:22:33;;;;;;;4.28;3.00;;;;;;;11.65;62.45;100673.50;5052098;28;20033;-71
2022/04/12 06:24:59;;;;;;;7.88;3.33;;;;;;;12.34;60.59;100700.88;5051898;28;20106;-71
2022/04/12 06:27:39;;;;;;;7.63;4.82;;;;;;;11.64;60.58;100678.63;5052861;28;20037;-70
2022/04/12 06:30:08;;;;;;;5.43;3.67;;;;;;;11.95;61.39;100703.44;5053327;28;20052;-71
2022/04/12 06:32:35;;;;;;;5.13;3.70;;;;;;;11.86;60.06;100682.44;5053275;28;20040;-70
2022/04/12 06:35:02;;;;;;;4.65;2.40;;;;;;;11.95;59.98;100698.34;5053414;28;20033;-70
2022/04/12 06:37:28;;;;;;;4.75;2.47;;;;;;;11.73;59.32;100704.78;5051665;28;20396;-72
2022/04/12 06:39:56;;;;;;;3.00;2.45;;;;;;;11.96;59.60;100715.31;5053073;28;20026;-71
2022/04/12 06:42:22;;;;;;;5.00;3.00;;;;;;;12.52;58.40;100697.88;5051815;28;20506;-71
2022/04/12 06:44:47;;;;;;;4.68;2.67;;;;;;;12.88;57.75;100702.91;5052840;28;20112;-71
2022/04/12 06:47:16;;;;;;;4.78;2.03;;;;;;;12.54;56.59;100679.09;5053068;28;20025;-72
2022/04/12 06:49:50;;;;;;;4.28;3.08;;;;;;;12.63;56.75;100698.47;5052925;28;20530;-71
2022/04/12 06:52:17;;;;;;;4.32;3.30;;;;;;;12.06;57.49;100681.09;5053265;28;20029;-71
2022/04/12 06:54:43;;;;;;;2.90;2.22;;;;;;;13.23;56.13;100680.75;5053053;28;20032;-72
2022/04/12 06:57:09;;;;;;;2.65;1.90;;;;;;;13.43;54.76;100686.13;5051277;28;20037;-71
2022/04/12 06:59:35;;;;;;;2.85;2.10;;;;;;;12.68;55.62;100696.63;5052561;28;20033;-72
2022/04/12 07:02:01;;;;;;;5.25;1.95;;;;;;;13.01;55.87;100657.47;5052710;28;20128;-72
2022/04/12 07:04:27;;;;;;;3.15;2.13;;;;;;;12.36;56.16;100683.84;5051715;28;20475;-72
2022/04/12 07:06:53;;;;;;;3.15;2.00;;;;;;;12.56;56.40;100707.97;5052581;28;20086;-72
2022/04/12 07:09:21;;;;;;;4.72;2.00;;;;;;;12.62;55.34;100674.66;5052637;28;20033;-71
2022/04/12 07:11:48;;;;;;;3.75;2.05;;;;;;;14.01;53.94;100705.69;5052475;28;20028;-71
2022/04/12 07:14:13;;;;;;;7.85;2.05;;;;;;;12.81;54.23;100662.28;5052547;28;20111;-72
2022/04/12 07:16:39;;;;;;;2.63;2.03;;;;;;;13.97;53.69;100699.00;5052550;28;20120;-70
2022/04/12 07:19:04;;;;;;;2.95;1.85;;;;;;;13.66;54.36;100687.16;5052081;28;20112;-71
2022/04/12 07:21:30;;;;;;;2.47;1.90;;;;;;;13.00;55.49;100714.50;5052322;28;20037;-72
2022/04/12 07:23:58;;;;;;;2.60;2.03;;;;;;;13.02;54.64;100685.50;5052418;28;20449;-72
2022/04/12 07:26:24;;;;;;;3.78;2.00;;;;;;;13.17;53.03;100699.63;5050811;28;20078;-67
2022/04/12 07:28:50;;;;;;;2.60;2.10;;;;;;;12.87;51.22;100695.28;5052124;28;20814;-71
2022/04/12 07:31:15;;;;;;;4.20;2.15;;;;;;;13.32;52.64;100719.63;5052272;28;20032;-71
2022/04/12 07:33:41;;;;;;;3.95;2.22;;;;;;;13.41;51.68;100713.44;5050964;28;20058;-71
2022/04/12 07:36:06;;;;;;;3.38;2.33;;;;;;;13.41;51.55;100710.88;5052179;28;20107;-72
2022/04/12 07:38:31;;;;;;;4.95;2.20;;;;;;;13.41;53.00;100709.16;5051940;28;20111;-71
2022/04/12 07:40:57;;;;;;;3.72;1.95;;;;;;;14.19;50.88;100708.53;5052089;28;20027;-70
2022/04/12 07:43:22;;;;;;;3.45;2.20;;;;;;;14.15;50.53;100667.75;5051410;28;20529;-72
2022/04/12 07:45:48;;;;;;;3.00;1.75;;;;;;;13.60;50.89;100702.66;5051872;28;20028;-70
2022/04/12 07:48:13;;;;;;;3.50;2.00;;;;;;;13.50;51.38;100683.38;5051902;28;20029;-71
2022/04/12 07:50:40;;;;;;;3.05;2.00;;;;;;;14.40;50.68;100682.31;5051552;28;20483;-71
2022/04/12 07:53:05;;;;;;;5.53;1.98;;;;;;;13.78;50.93;100703.84;5051707;28;20029;-72
2022/04/12 07:55:31;;;;;;;4.85;2.17;;;;;;;14.77;49.69;100682.78;5050885;28;20038;-69
2022/04/12 07:57:56;;;;;;;4.13;2.40;;;;;;;13.73;49.99;100682.69;5051219;28;20060;-71
2022/04/12 08:00:22;;;;;;;4.53;2.22;;;;;;;14.31;50.20;100692.84;5051636;28;20036;-71
2022/04/12 08:02:48;;;;;;;2.55;1.98;;;;;;;13.96;49.41;100664.97;5050168;28;20148;-71
2022/04/12 08:05:14;;;;;;;2.63;1.75;;;;;;;14.25;49.91;100692.16;5051775;28;20394;-72
2022/04/12 08:07:44;;;;;;;3.67;1.67;;;;;;;14.05;48.99;100668.94;5051299;28;20028;-72
2022/04/12 08:10:10;;;;;;;3.60;2.20;;;;;;;14.27;48.83;100677.59;5051314;28;20060;-71
2022/04/12 08:12:35;;;;;;;4.35;1.90;;;;;;;14.94;48.51;100686.47;5051376;28;20064;-72
2022/04/12 08:15:02;;;;;;;3.83;2.08;;;;;;;14.98;48.88;100654.75;5050114;28;20119;-72
2022/04/12 08:17:28;;;;;;;3.85;1.85;;;;;;;14.30;49.11;100672.44;5051082;28;20489;-71
2022/04/12 08:19:53;;;;;;;3.50;2.30;;;;;;;14.65;49.04;100672.97;5051360;28;20116;-72
2022/04/12 08:22:18;;;;;;;3.38;1.50;;;;;;;14.36;48.41;100664.56;5051292;28;20033;-72
2022/04/12 08:24:44;;;;;;;4.88;1.73;;;;;;;15.18;48.35;100670.25;5050733;28;20033;-70
2022/04/12 08:27:09;;;;;;;3.45;2.00;;;;;;;15.06;47.94;100679.22;5051246;28;20120;-72
2022/04/12 08:29:34;;;;;;;4.70;1.95;;;;;;;15.18;47.63;100665.13;5050009;28;20025;-72
2022/04/12 08:32:00;;;;;;;2.75;1.40;;;;;;;15.42;46.17;100685.63;5051055;28;20032;-71
2022/04/12 08:34:25;;;;;;;4.50;1.90;;;;;;;15.28;46.15;100682.69;5049946;28;20025;-72
2022/04/12 08:36:51;;;;;;;3.05;1.85;;;;;;;13.55;47.45;100678.94;5051279;28;20059;-72
2022/04/12 08:39:16;;;;;;;2.60;1.70;;;;;;;15.45;46.76;100659.88;5050852;28;20040;-72
2022/04/12 08:41:42;;;;;;;3.80;2.15;;;;;;;13.32;47.62;100658.34;5050555;28;20029;-71
2022/04/12 08:44:07;;;;;;;5.15;2.40;;;;;;;13.00;47.57;100678.75;5051092;28;20032;-71
2022/04/12 08:46:36;;;;;;;3.50;1.90;;;;;;;14.36;45.33;100670.50;5050775;28;20052;-71
2022/04/12 08:49:02;;;;;;;4.18;2.63;;;;;;;15.79;45.04;100681.69;5050770;28;20037;-71
2022/04/12 08:51:28;;;;;;;3.05;1.90;;;;;;;15.07;45.21;100655.28;5049761;28;20491;-72
2022/04/12 08:53:56;;;;;;;5.63;2.60;;;;;;;13.77;47.23;100668.94;5050708;28;20496;-71
2022/04/12 08:56:23;;;;;;;3.22;2.05;;;;;;;13.62;47.74;100657.47;5050496;28;20197;-72
2022/04/12 08:58:48;;;;;;;5.20;4.60;;;;;;;14.64;45.97;100647.41;5050845;28;20502;-70
2022/04/12 09:01:15;;;;;;;4.68;1.90;;;;;;;14.10;44.90;100636.41;5050511;28;20029;-71
2022/04/12 09:03:41;;;;;;;4.28;2.10;;;;;;;14.69;45.34;100661.72;5050533;28;20419;-71
2022/04/12 09:06:06;;;;;;;5.32;2.58;;;;;;;13.84;46.92;100673.00;5050522;28;20037;-71
2022/04/12 09:08:32;;;;;;;5.22;2.30;;;;;;;13.64;47.27;100672.75;5054026;28;20037;-71
2022/04/12 09:11:07;;;;;;;4.07;1.63;;;;;;;14.48;46.93;100652.19;5053183;28;20037;-71
2022/04/12 09:13:33;;;;;;;4.43;2.10;;;;;;;15.54;45.95;100615.13;5054735;28;20032;-70
2022/04/12 09:15:59;;;;;;;4.85;3.40;;;;;;;15.71;45.51;100648.63;5053351;28;20119;-71
2022/04/12 09:18:39;;;;;;;5.45;2.22;;;;;;;16.45;44.71;100643.09;5054458;28;20141;-69
2022/04/12 09:21:14;;;;;;;2.70;2.00;;;;;;;14.76;46.02;100647.81;5054399;28;20044;-70
2022/04/12 09:23:53;;;;;;;3.33;1.60;;;;;;;14.69;45.27;100646.38;5054773;28;20025;-71
2022/04/12 09:26:26;;;;;;;2.60;1.55;;;;;;;14.09;45.55;100612.53;5054659;28;20378;-70
2022/04/12 09:28:54;;;;;;;5.50;1.80;;;;;;;13.91;47.33;100608.00;5054458;28;20033;-71
2022/04/12 09:31:20;;;;;;;5.00;2.30;;;;;;;14.31;47.26;100621.22;5054490;28;20120;-71
2022/04/12 09:33:48;;;;;;;4.15;1.83;;;;;;;14.39;45.81;100636.31;5052773;28;20629;-71
2022/04/12 09:36:13;;;;;;;3.80;2.53;;;;;;;14.43;44.88;100635.31;5054355;28;20491;-71
2022/04/12 09:38:41;;;;;;;4.78;2.30;;;;;;;14.74;46.32;100621.44;5054189;28;20044;-70
2022/04/12 09:41:17;;;;;;;3.03;1.92;;;;;;;14.18;46.38;100626.75;5054455;28;20032;-71
2022/04/12 09:43:54;;;;;;;4.07;1.70;;;;;;;13.96;46.38;100628.31;5054128;28;20626;-71
2022/04/12 09:46:21;;;;;;;4.63;2.55;;;;;;;14.27;45.97;100629.84;5053872;28;20032;-71
2022/04/12 09:48:48;;;;;;;3.45;2.08;;;;;;;13.82;46.85;100621.09;5052828;28;20557;-71
2022/04/12 09:51:14;;;;;;;3.17;1.98;;;;;;;13.58;46.60;100630.31;5054055;28;20036;-71
2022/04/12 09:53:41;;;;;;;4.78;1.77;;;;;;;15.04;45.07;100593.91;5052675;28;20024;-71
2022/04/12 09:56:28;;;;;;;2.92;1.60;;;;;;;15.52;45.25;100589.56;5054012;28;20036;-72
2022/04/12 09:58:59;;;;;;;4.15;1.48;;;;;;;16.98;43.95;100595.44;5054139;28;20032;-72
2022/04/12 10:01:26;;;;;;;3.78;1.40;;;;;;;16.74;42.48;100570.03;5053768;28;20040;-71
2022/04/12 10:03:54;;;;;;;2.70;1.35;;;;;;;16.79;41.79;100592.03;5053909;28;20431;-72
2022/04/12 10:06:21;;;;;;;5.45;2.15;;;;;;;18.12;41.07;100583.25;5053633;28;20554;-71
2022/04/12 10:08:51;;;;;;;3.03;1.60;;;;;;;16.56;41.78;100568.25;5053482;28;20028;-72
2022/04/12 10:11:17;;;;;;;3.97;1.42;;;;;;;16.71;42.17;100555.56;5053879;28;20032;-72
2022/04/12 10:13:43;;;;;;;3.10;1.40;;;;;;;17.53;41.82;100562.94;5053965;28;20021;-74
2022/04/12 10:16:09;;;;;;;4.18;1.13;;;;;;;16.32;42.84;100547.00;5053603;28;20021;-71
2022/04/12 10:18:35;;;;;;;4.70;1.70;;;;;;;15.11;44.36;100581.72;5052011;28;20219;-73
2022/04/12 10:21:01;;;;;;;2.58;1.20;;;;;;;15.36;45.40;100570.50;5053728;28;20048;-72
2022/04/12 10:23:29;;;;;;;3.95;1.83;;;;;;;14.94;44.53;100577.22;5053437;28;20041;-72
2022/04/12 10:25:55;;;;;;;2.72;1.73;;;;;;;16.07;42.79;100564.28;5053408;28;20029;-72
2022/04/12 10:28:23;;;;;;;2.33;1.30;;;;;;;17.02;41.82;100555.88;5053513;28;20550;-71
2022/04/12 10:30:49;;;;;;;3.00;1.55;;;;;;;17.92;41.26;100535.34;5053516;28;20055;-72
2022/04/12 10:33:15;;;;;;;2.20;1.58;;;;;;;18.04;41.44;100539.03;5053398;28;20029;-73
2022/04/12 10:35:46;;;;;;;3.10;1.50;;;;;;;15.55;41.88;100553.56;5053114;28;20400;-72
2022/04/12 10:38:13;;;;;;;2.25;1.40;;;;;;;15.63;42.87;100518.19;5053144;28;20029;-71
2022/04/12 10:40:50;;;;;;;4.90;1.73;;;;;;;17.31;42.08;100536.56;5053011;28;20043;-72
2022/04/12 10:43:29;;;;;;;2.20;1.30;;;;;;;16.29;41.92;100508.63;5053011;28;20031;-72
2022/04/12 10:45:56;;;;;;;3.47;1.35;;;;;;;17.37;41.68;100495.16;5051948;28;20032;-72
2022/04/12 10:48:24;;;;;;;2.00;1.40;;;;;;;15.82;42.50;100496.94;5053045;28;20411;-71
2022/04/12 10:50:56;;;;;;;3.00;1.70;;;;;;;16.14;43.17;100522.09;5052850;28;20484;-72
2022/04/12 10:53:37;;;;;;;5.35;1.63;;;;;;;16.27;43.41;100523.25;5052969;28;20036;-72
2022/04/12 10:56:13;;;;;;;5.80;1.70;;;;;;;16.42;43.01;100523.41;5052942;28;20060;-71
2022/04/12 10:58:40;;;;;;;2.72;1.58;;;;;;;15.46;43.25;100518.03;5052766;28;20047;-71
2022/04/12 11:01:10;;;;;;;2.60;1.90;;;;;;;15.38;43.31;100537.97;5052695;28;20044;-70
2022/04/12 11:03:41;;;;;;;3.28;1.52;;;;;;;15.43;44.35;100546.34;5052626;28;20048;-71
2022/04/12 11:06:10;;;;;;;3.60;2.60;;;;;;;15.05;43.86;100488.03;5052395;28;20135;-70
2022/04/12 11:08:36;;;;;;;4.03;2.28;;;;;;;15.13;44.32;100503.91;5052621;28;20144;-71
2022/04/12 11:11:01;;;;;;;5.88;3.13;;;;;;;14.81;45.10;100527.34;5052756;28;20388;-70
2022/04/12 11:13:31;;;;;;;4.22;2.20;;;;;;;15.64;44.03;100521.59;5052426;28;20513;-71
2022/04/12 11:16:06;;;;;;;4.55;2.28;;;;;;;15.28;44.41;100523.84;5050907;28;20033;-72
2022/04/12 11:18:48;;;;;;;6.72;3.00;;;;;;;15.05;47.70;100526.47;5052601;28;20040;-72
2022/04/12 11:21:14;;;;;;;;;;;;;;;14.57;45.27;100525.66;5052857;28;20432;-71
2022/04/12 11:24:04;;;;;;;2.17;1.60;;;;;;;17.30;44.68;100510.03;5052273;28;19916;-72
2022/04/12 11:26:38;;;;;;;2.70;1.80;;;;;;;17.13;45.70;100511.72;5051281;28;20036;-72